createdAt,value
2023-03-06T00:00:40.908Z,96153.29
2023-03-06T00:03:20.599Z,96145.73
2023-03-06T00:05:51.021Z,96154.67
2023-03-06T00:08:21.362Z,96161.06
2023-03-06T00:10:51.709Z,96163.13
2023-03-06T00:13:22.323Z,96155.42
2023-03-06T00:15:52.667Z,96146.58
2023-03-06T00:18:23.241Z,96147.16
2023-03-06T00:20:58.791Z,96147.30
2023-03-06T00:23:29.457Z,96135.67
2023-03-06T00:26:01.428Z,96142.48
2023-03-06T00:28:32.388Z,96141.28
2023-03-06T00:31:03.311Z,96129.41
2023-03-06T00:33:33.998Z,96123.15
2023-03-06T00:36:07.910Z,96122.52
2023-03-06T00:38:38.302Z,96121.04
2023-03-06T00:41:13.526Z,96116.00
2023-03-06T00:43:43.986Z,96103.20
2023-03-06T00:46:15.031Z,96108.52
2023-03-06T00:48:46.659Z,96121.04
2023-03-06T00:51:19.578Z,96125.11
2023-03-06T00:53:50.036Z,96109.20
2023-03-06T00:56:20.433Z,96090.58
2023-03-06T00:58:51.747Z,96078.89
2023-03-06T01:01:22.829Z,96070.66
2023-03-06T01:03:53.508Z,96062.04
2023-03-06T01:06:24.187Z,96056.04
2023-03-06T01:08:54.685Z,96054.87
2023-03-06T01:11:25.840Z,96062.64
2023-03-06T01:13:56.092Z,96064.89
2023-03-06T01:16:26.979Z,96054.30
2023-03-06T01:18:57.543Z,96052.63
2023-03-06T01:21:29.061Z,96039.34
2023-03-06T01:23:59.367Z,96037.59
2023-03-06T01:26:32.048Z,96044.45
2023-03-06T01:29:02.778Z,96041.04
2023-03-06T01:31:33.483Z,96043.30
2023-03-06T01:34:04.948Z,96029.24
2023-03-06T01:36:35.213Z,96030.71
2023-03-06T01:39:06.929Z,96019.96
2023-03-06T01:41:38.086Z,96011.42
2023-03-06T01:44:09.798Z,96003.14
2023-03-06T01:46:42.446Z,96006.06
2023-03-06T01:49:18.136Z,96001.02
2023-03-06T01:51:51.507Z,95993.77
2023-03-06T01:54:24.951Z,95993.95
2023-03-06T01:57:00.873Z,95996.75
2023-03-06T01:59:31.508Z,96001.62
2023-03-06T02:02:03.999Z,95997.05
2023-03-06T02:04:35.321Z,96000.33
2023-03-06T02:07:07.679Z,95998.71
2023-03-06T02:09:39.520Z,95990.77
2023-03-06T02:12:12.462Z,95987.48
2023-03-06T02:14:43.099Z,95981.55
2023-03-06T02:17:15.686Z,95975.33
2023-03-06T02:19:53.506Z,95964.81
2023-03-06T02:22:27.101Z,95944.29
2023-03-06T02:25:03.099Z,95935.80
2023-03-06T02:27:34.032Z,95932.77
2023-03-06T02:30:10.122Z,95926.23
2023-03-06T02:32:40.699Z,95933.98
2023-03-06T02:35:18.335Z,95931.46
2023-03-06T02:37:49.436Z,95934.95
2023-03-06T02:40:20.874Z,95920.68
2023-03-06T02:42:55.935Z,95912.77
2023-03-06T02:45:31.153Z,95904.02
2023-03-06T02:48:01.258Z,95900.62
2023-03-06T02:50:31.684Z,95893.78
2023-03-06T02:53:02.563Z,95895.30
2023-03-06T02:55:33.007Z,95890.41
2023-03-06T02:58:04.205Z,95893.23
2023-03-06T03:00:34.767Z,95885.27
2023-03-06T03:03:06.328Z,95875.02
2023-03-06T03:05:36.898Z,95866.57
2023-03-06T03:08:07.647Z,95869.05
2023-03-06T03:10:38.649Z,95872.27
2023-03-06T03:13:10.222Z,95878.84
2023-03-06T03:15:41.029Z,95869.77
2023-03-06T03:18:12.291Z,95863.33
2023-03-06T03:20:44.870Z,95857.27
2023-03-06T03:23:16.058Z,95863.73
2023-03-06T03:25:47.578Z,95862.00
2023-03-06T03:28:18.808Z,95858.38
2023-03-06T03:30:49.204Z,95861.10
2023-03-06T03:33:19.583Z,95861.05
2023-03-06T03:35:58.292Z,95845.42
2023-03-06T03:38:29.293Z,95849.33
2023-03-06T03:41:01.288Z,95847.35
2023-03-06T03:43:32.996Z,95847.79
2023-03-06T03:46:04.438Z,95848.55
2023-03-06T03:48:35.154Z,95843.11
2023-03-06T03:51:08.976Z,95837.54
2023-03-06T03:53:40.653Z,95844.71
2023-03-06T03:56:12.234Z,95841.87
2023-03-06T03:58:43.556Z,95834.95
2023-03-06T04:01:13.801Z,95832.18
2023-03-06T04:03:44.680Z,95826.80
2023-03-06T04:06:16.053Z,95830.73
2023-03-06T04:08:46.444Z,95833.98
2023-03-06T04:11:18.571Z,95831.63
2023-03-06T04:13:49.107Z,95816.30
2023-03-06T04:16:20.649Z,95820.91
2023-03-06T04:18:50.855Z,95811.61
2023-03-06T04:21:21.130Z,95818.27
2023-03-06T04:23:51.668Z,95826.45
2023-03-06T04:26:22.367Z,95814.98
2023-03-06T04:28:52.608Z,95807.95
2023-03-06T04:31:23.374Z,95814.94
2023-03-06T04:33:53.717Z,95816.62
2023-03-06T04:36:27.965Z,95807.45
2023-03-06T04:38:58.493Z,95804.82
2023-03-06T04:41:29.067Z,95801.38
2023-03-06T04:43:59.818Z,95797.83
2023-03-06T04:46:30.135Z,95788.90
2023-03-06T04:49:00.595Z,95795.56
2023-03-06T04:51:30.890Z,95796.84
2023-03-06T04:54:01.279Z,95792.42
2023-03-06T04:56:31.500Z,95783.24
2023-03-06T04:59:03.648Z,95780.45
2023-03-06T05:01:34.678Z,95788.29
2023-03-06T05:04:05.750Z,95788.54
2023-03-06T05:06:37.225Z,95774.11
2023-03-06T05:09:08.187Z,95771.56
2023-03-06T05:11:38.408Z,95769.00
2023-03-06T05:14:08.726Z,95766.27
2023-03-06T05:16:39.093Z,95757.42
2023-03-06T05:19:09.593Z,95748.47
2023-03-06T05:21:39.979Z,95743.80
2023-03-06T05:24:11.276Z,95742.34
2023-03-06T05:26:41.721Z,95739.98
2023-03-06T05:29:12.139Z,95729.91
2023-03-06T05:31:42.450Z,95718.67
2023-03-06T05:34:14.827Z,95715.49
2023-03-06T05:36:45.209Z,95706.90
2023-03-06T05:39:15.624Z,95697.95
2023-03-06T05:41:50.754Z,95696.23
2023-03-06T05:44:23.612Z,95691.34
2023-03-06T05:46:55.107Z,95685.80
2023-03-06T05:49:25.406Z,95698.77
2023-03-06T05:51:56.087Z,95693.60
2023-03-06T05:54:26.642Z,95692.36
2023-03-06T05:56:57.732Z,95684.44
2023-03-06T05:59:28.784Z,95680.04
2023-03-06T06:01:59.307Z,95681.16
2023-03-06T06:04:29.878Z,95673.30
2023-03-06T06:07:01.470Z,95667.31
2023-03-06T06:09:31.843Z,95676.80
2023-03-06T06:12:06.021Z,95672.64
2023-03-06T06:14:36.775Z,95660.49
2023-03-06T06:17:08.290Z,95667.13
2023-03-06T06:19:38.875Z,95666.11
2023-03-06T06:22:09.059Z,95657.77
2023-03-06T06:24:39.427Z,95663.63
2023-03-06T06:27:09.731Z,95652.06
2023-03-06T06:29:40.088Z,95648.66
2023-03-06T06:32:10.508Z,95651.29
2023-03-06T06:34:41.271Z,95652.63
2023-03-06T06:37:11.539Z,95644.85
2023-03-06T06:39:41.820Z,95627.10
2023-03-06T06:42:30.481Z,95626.91
2023-03-06T06:45:03.054Z,95634.54
2023-03-06T06:47:33.918Z,95622.52
2023-03-06T06:50:04.580Z,95604.91
2023-03-06T06:52:35.178Z,95614.93
2023-03-06T06:55:06.881Z,95615.60
2023-03-06T06:57:37.820Z,95573.05
2023-03-06T07:00:12.058Z,95597.79
2023-03-06T07:02:42.480Z,95597.39
2023-03-06T07:05:13.381Z,95566.90
2023-03-06T07:07:44.666Z,95570.58
2023-03-06T07:10:18.910Z,95567.30
2023-03-06T07:12:50.173Z,95567.67
2023-03-06T07:15:20.964Z,95551.91
2023-03-06T07:17:51.264Z,95558.64
2023-03-06T07:20:22.992Z,95556.56
2023-03-06T07:22:53.425Z,95541.71
2023-03-06T07:25:23.878Z,95536.99
2023-03-06T07:27:55.368Z,95540.17
2023-03-06T07:30:25.781Z,95529.45
2023-03-06T07:32:57.820Z,95531.52
2023-03-06T07:35:28.719Z,95520.64
2023-03-06T07:37:59.338Z,95515.61
2023-03-06T07:40:30.517Z,95514.23
2023-03-06T07:43:13.222Z,95517.64
2023-03-06T07:45:49.317Z,95505.05
2023-03-06T07:48:19.427Z,95498.65
2023-03-06T07:50:57.562Z,95495.98
2023-03-06T07:53:28.345Z,95511.04
2023-03-06T07:55:58.677Z,95500.95
2023-03-06T07:58:29.026Z,95494.81
2023-03-06T08:01:03.273Z,95489.79
2023-03-06T08:03:33.628Z,95473.67
2023-03-06T08:06:12.647Z,95482.46
2023-03-06T08:08:45.105Z,95467.30
2023-03-06T08:11:17.509Z,95463.98
2023-03-06T08:13:49.471Z,95458.24
2023-03-06T08:16:21.440Z,95454.04
2023-03-06T08:18:52.245Z,95440.31
2023-03-06T08:21:23.893Z,95428.66
2023-03-06T08:23:54.266Z,95437.45
2023-03-06T08:26:26.777Z,95417.16
2023-03-06T08:28:58.250Z,95408.45
2023-03-06T08:31:30.396Z,95401.45
2023-03-06T08:34:02.105Z,95385.73
2023-03-06T08:36:32.545Z,95387.59
2023-03-06T08:39:04.318Z,95384.75
2023-03-06T08:41:35.097Z,95383.35
2023-03-06T08:44:06.213Z,95388.65
2023-03-06T08:46:37.237Z,95395.36
2023-03-06T08:49:08.805Z,95417.54
2023-03-06T08:51:39.042Z,95423.58
2023-03-06T08:54:10.485Z,95438.20
2023-03-06T08:56:41.140Z,95439.64
2023-03-06T08:59:13.153Z,95446.58
2023-03-06T09:01:44.937Z,95458.52
2023-03-06T09:04:15.312Z,95459.61
2023-03-06T09:06:46.508Z,95445.17
2023-03-06T09:09:16.964Z,95427.70
2023-03-06T09:11:47.646Z,95415.31
2023-03-06T09:14:18.071Z,95408.01
2023-03-06T09:16:48.513Z,95404.16
2023-03-06T09:19:18.969Z,95398.48
2023-03-06T09:21:49.410Z,95405.64
2023-03-06T09:24:20.134Z,95408.39
2023-03-06T09:26:51.699Z,95420.34
2023-03-06T09:29:22.154Z,95419.77
2023-03-06T09:31:52.396Z,95423.19
2023-03-06T09:34:23.071Z,95438.76
2023-03-06T09:36:57.253Z,95436.61
2023-03-06T09:39:28.477Z,95448.54
2023-03-06T09:41:59.333Z,95459.07
2023-03-06T09:44:31.050Z,95477.80
2023-03-06T09:47:24.925Z,95514.48
2023-03-06T09:50:11.929Z,95569.68
2023-03-06T09:52:50.300Z,95578.95
2023-03-06T09:55:22.933Z,95568.73
2023-03-06T09:57:56.479Z,95574.17
2023-03-06T10:00:33.582Z,95593.86
2023-03-06T10:03:15.098Z,95580.23
2023-03-06T10:05:47.749Z,95610.48
2023-03-06T10:08:24.493Z,95621.09
2023-03-06T10:10:58.532Z,95631.95
2023-03-06T10:13:31.676Z,95618.99
2023-03-06T10:16:08.237Z,95590.46
2023-03-06T10:18:38.845Z,95583.86
2023-03-06T10:21:23.784Z,95578.75
2023-03-06T10:23:55.927Z,95584.00
2023-03-06T10:26:28.515Z,95573.70
2023-03-06T10:29:16.636Z,95558.34
2023-03-06T10:31:51.038Z,95579.50
2023-03-06T10:34:23.805Z,95581.68
2023-03-06T10:36:54.262Z,95583.05
2023-03-06T10:39:24.824Z,95598.02
2023-03-06T10:41:57.914Z,95607.44
2023-03-06T10:44:28.692Z,95590.92
2023-03-06T10:46:59.418Z,95576.82
2023-03-06T10:49:35.750Z,95563.74
2023-03-06T10:52:20.140Z,95571.08
2023-03-06T10:54:50.831Z,95573.86
2023-03-06T10:57:26.011Z,95583.79
2023-03-06T10:59:58.861Z,95590.91
2023-03-06T11:02:36.245Z,95585.86
2023-03-06T11:05:11.180Z,95595.09
2023-03-06T11:07:56.406Z,95589.70
2023-03-06T11:10:28.260Z,95561.54
2023-03-06T11:13:04.715Z,95581.21
2023-03-06T11:15:41.132Z,95605.02
2023-03-06T11:18:30.817Z,95583.94
2023-03-06T11:21:01.936Z,95570.86
2023-03-06T11:23:38.861Z,95558.36
2023-03-06T11:26:32.351Z,95553.66
2023-03-06T11:29:25.676Z,95542.02
2023-03-06T11:32:00.605Z,95524.50
2023-03-06T11:34:41.171Z,95525.60
2023-03-06T11:37:17.236Z,95533.01
2023-03-06T11:39:50.992Z,95529.74
2023-03-06T11:42:24.875Z,95540.81
2023-03-06T11:45:04.136Z,95558.14
2023-03-06T11:47:37.085Z,95554.58
2023-03-06T11:50:17.675Z,95562.75
2023-03-06T11:52:52.554Z,95560.83
2023-03-06T11:55:39.974Z,95588.91
2023-03-06T11:58:41.093Z,95566.39
2023-03-06T12:01:16.648Z,95574.91
2023-03-06T12:04:19.276Z,95582.89
2023-03-06T12:06:57.640Z,95581.50
2023-03-06T12:09:38.893Z,95576.12
2023-03-06T12:12:22.916Z,95583.62
2023-03-06T12:15:04.707Z,95604.62
2023-03-06T12:17:47.096Z,95616.60
2023-03-06T12:20:33.326Z,95627.02
2023-03-06T12:23:15.332Z,95640.30
2023-03-06T12:25:51.540Z,95659.01
2023-03-06T12:28:34.780Z,95672.08
2023-03-06T12:31:26.177Z,95695.99
2023-03-06T12:34:05.546Z,95688.13
2023-03-06T12:36:42.206Z,95694.53
2023-03-06T12:39:18.824Z,95708.54
2023-03-06T12:42:06.784Z,95724.82
2023-03-06T12:44:58.815Z,95736.15
2023-03-06T12:47:30.397Z,95733.19
2023-03-06T12:50:08.195Z,95744.38
2023-03-06T12:52:39.057Z,95737.13
2023-03-06T12:55:17.161Z,95728.45
2023-03-06T12:57:48.626Z,95722.36
2023-03-06T13:00:58.752Z,95714.16
2023-03-06T13:03:44.633Z,95713.92
2023-03-06T13:06:27.451Z,95720.40
2023-03-06T13:09:18.058Z,95723.78
2023-03-06T13:12:03.939Z,95724.79
2023-03-06T13:14:54.985Z,95725.64
2023-03-06T13:17:34.039Z,95726.71
2023-03-06T13:20:26.927Z,95725.02
2023-03-06T13:22:58.676Z,95745.73
2023-03-06T13:25:49.727Z,95751.20
2023-03-06T13:28:45.843Z,95770.16
2023-03-06T13:31:27.700Z,95780.63
2023-03-06T13:34:02.627Z,95782.46
2023-03-06T13:36:33.827Z,95777.90
2023-03-06T13:39:09.339Z,95776.08
2023-03-06T13:41:57.241Z,95763.46
2023-03-06T13:44:50.799Z,95759.58
2023-03-06T13:48:06.504Z,95767.30
2023-03-06T13:50:39.456Z,95784.67
2023-03-06T13:53:37.607Z,95801.24
2023-03-06T13:56:13.076Z,95804.01
2023-03-06T13:58:58.120Z,95803.73
2023-03-06T14:01:43.394Z,95806.21
2023-03-06T14:04:38.024Z,95811.06
2023-03-06T14:07:23.484Z,95819.23
2023-03-06T14:10:02.091Z,95832.02
2023-03-06T14:12:35.757Z,95841.64
2023-03-06T14:15:13.382Z,95853.73
2023-03-06T14:17:53.680Z,95866.40
2023-03-06T14:20:28.350Z,95862.11
2023-03-06T14:23:16.389Z,95873.08
2023-03-06T14:25:47.989Z,95894.06
2023-03-06T14:28:26.523Z,95891.50
2023-03-06T14:30:59.195Z,95890.78
2023-03-06T14:33:35.645Z,95907.11
2023-03-06T14:36:09.014Z,95896.80
2023-03-06T14:38:46.213Z,95915.67
2023-03-06T14:41:24.772Z,95923.84
2023-03-06T14:44:10.190Z,95935.88
2023-03-06T14:46:41.044Z,95947.76
2023-03-06T14:49:13.071Z,95955.19
2023-03-06T14:51:45.043Z,95952.55
2023-03-06T14:54:21.203Z,95943.55
2023-03-06T14:56:55.554Z,95943.48
2023-03-06T14:59:28.533Z,95946.48
2023-03-06T15:02:01.584Z,95958.27
2023-03-06T15:04:36.651Z,95965.76
2023-03-06T15:07:10.269Z,95985.16
2023-03-06T15:09:42.408Z,95982.21
2023-03-06T15:12:35.978Z,95988.82
2023-03-06T15:15:27.509Z,95993.17
2023-03-06T15:17:57.832Z,96007.23
2023-03-06T15:20:43.666Z,96010.85
2023-03-06T15:23:23.156Z,96019.70
2023-03-06T15:25:59.079Z,96026.32
2023-03-06T15:28:38.277Z,96032.32
2023-03-06T15:31:21.316Z,96035.43
2023-03-06T15:34:23.873Z,96036.86
2023-03-06T15:36:55.838Z,96037.79
2023-03-06T15:39:31.660Z,96044.04
2023-03-06T15:42:05.036Z,96042.80
2023-03-06T15:44:36.478Z,96053.25
2023-03-06T15:47:09.539Z,96063.80
2023-03-06T15:49:40.596Z,96064.20
2023-03-06T15:52:12.332Z,96064.84
2023-03-06T15:54:45.293Z,96067.96
2023-03-06T15:57:21.292Z,96072.36
2023-03-06T15:59:52.561Z,96074.56
2023-03-06T16:02:24.722Z,96076.66
2023-03-06T16:04:57.250Z,96077.08
2023-03-06T16:07:28.396Z,96074.55
2023-03-06T16:09:59.238Z,96077.48
2023-03-06T16:12:31.320Z,96080.91
2023-03-06T16:15:06.663Z,96085.61
2023-03-06T16:17:37.070Z,96084.35
2023-03-06T16:20:10.954Z,96088.79
2023-03-06T16:22:41.448Z,96092.39
2023-03-06T16:25:12.922Z,96097.25
2023-03-06T16:27:55.479Z,96109.65
2023-03-06T16:30:27.314Z,96112.41
2023-03-06T16:32:58.747Z,96117.34
2023-03-06T16:35:31.752Z,96114.79
2023-03-06T16:38:02.472Z,96115.27
2023-03-06T16:40:40.974Z,96117.09
2023-03-06T16:43:13.222Z,96118.38
2023-03-06T16:45:45.214Z,96134.84
2023-03-06T16:48:19.026Z,96135.36
2023-03-06T16:50:50.147Z,96152.84
2023-03-06T16:53:21.500Z,96154.90
2023-03-06T16:55:53.780Z,96164.77
2023-03-06T16:58:28.152Z,96174.85
2023-03-06T17:01:03.021Z,96171.50
2023-03-06T17:03:34.039Z,96170.90
2023-03-06T17:06:05.180Z,96166.66
2023-03-06T17:08:36.595Z,96164.47
2023-03-06T17:11:09.365Z,96157.58
2023-03-06T17:13:40.252Z,96156.87
2023-03-06T17:16:18.028Z,96158.30
2023-03-06T17:18:52.228Z,96166.73
2023-03-06T17:21:26.479Z,96174.48
2023-03-06T17:24:01.843Z,96183.13
2023-03-06T17:26:33.159Z,96188.75
2023-03-06T17:29:05.939Z,96198.08
2023-03-06T17:31:39.089Z,96201.99
2023-03-06T17:34:12.158Z,96205.67
2023-03-06T17:36:43.784Z,96208.09
2023-03-06T17:39:14.248Z,96213.42
2023-03-06T17:41:46.428Z,96215.03
2023-03-06T17:44:17.088Z,96211.23
2023-03-06T17:46:47.564Z,96208.21
2023-03-06T17:49:20.870Z,96205.99
2023-03-06T17:51:51.503Z,96212.06
2023-03-06T17:54:22.077Z,96204.37
2023-03-06T17:56:52.587Z,96207.80
2023-03-06T17:59:23.488Z,96205.23
2023-03-06T18:01:57.914Z,96207.99
2023-03-06T18:04:28.779Z,96212.22
2023-03-06T18:07:01.348Z,96210.70
2023-03-06T18:09:32.287Z,96219.88
2023-03-06T18:12:04.034Z,96226.04
2023-03-06T18:14:37.410Z,96229.32
2023-03-06T18:17:10.510Z,96235.26
2023-03-06T18:19:41.529Z,96238.34
2023-03-06T18:22:12.324Z,96242.80
2023-03-06T18:24:42.945Z,96238.20
2023-03-06T18:27:13.413Z,96233.48
2023-03-06T18:29:44.020Z,96242.79
2023-03-06T18:32:14.669Z,96244.03
2023-03-06T18:34:44.938Z,96241.27
2023-03-06T18:37:16.350Z,96243.70
2023-03-06T18:39:56.292Z,96241.56
2023-03-06T18:42:26.738Z,96242.23
2023-03-06T18:44:58.332Z,96245.25
2023-03-06T18:47:31.454Z,96249.80
2023-03-06T18:50:08.523Z,96258.31
2023-03-06T18:52:41.886Z,96267.79
2023-03-06T18:55:13.261Z,96274.52
2023-03-06T18:57:43.537Z,96282.47
2023-03-06T19:00:15.942Z,96294.18
2023-03-06T19:02:47.039Z,96301.05
2023-03-06T19:05:18.564Z,96306.23
2023-03-06T19:07:49.015Z,96314.09
2023-03-06T19:10:20.073Z,96317.11
2023-03-06T19:12:50.560Z,96310.45
2023-03-06T19:15:21.513Z,96311.66
2023-03-06T19:17:51.903Z,96310.92
2023-03-06T19:20:22.541Z,96312.84
2023-03-06T19:22:53.551Z,96318.01
2023-03-06T19:25:24.118Z,96314.89
2023-03-06T19:27:55.338Z,96312.19
2023-03-06T19:30:26.032Z,96311.54
2023-03-06T19:32:56.798Z,96310.23
2023-03-06T19:35:28.370Z,96312.18
2023-03-06T19:37:59.109Z,96316.63
2023-03-06T19:40:31.302Z,96319.23
2023-03-06T19:43:02.186Z,96329.34
2023-03-06T19:45:32.615Z,96336.33
2023-03-06T19:48:05.510Z,96344.84
2023-03-06T19:50:36.182Z,96353.84
2023-03-06T19:53:07.570Z,96355.36
2023-03-06T19:55:37.934Z,96360.70
2023-03-06T19:58:08.344Z,96360.93
2023-03-06T20:00:38.793Z,96367.37
2023-03-06T20:03:09.136Z,96364.52
2023-03-06T20:05:48.584Z,96361.75
2023-03-06T20:08:19.269Z,96369.48
2023-03-06T20:10:49.730Z,96373.48
2023-03-06T20:13:20.059Z,96375.06
2023-03-06T20:15:50.552Z,96381.34
2023-03-06T20:18:20.974Z,96390.01
2023-03-06T20:20:59.870Z,96397.96
2023-03-06T20:23:32.781Z,96407.55
2023-03-06T20:26:09.194Z,96421.18
2023-03-06T20:28:42.153Z,96431.80
2023-03-06T20:31:14.096Z,96435.44
2023-03-06T20:33:44.459Z,96448.70
2023-03-06T20:36:16.341Z,96454.54
2023-03-06T20:38:47.258Z,96452.41
2023-03-06T20:41:19.059Z,96450.72
2023-03-06T20:43:49.885Z,96452.44
2023-03-06T20:46:22.115Z,96443.10
2023-03-06T20:49:06.732Z,96448.75
2023-03-06T20:51:49.143Z,96440.92
2023-03-06T20:54:23.998Z,96448.43
2023-03-06T20:56:55.729Z,96445.59
2023-03-06T20:59:37.209Z,96436.86
2023-03-06T21:02:07.575Z,96437.54
2023-03-06T21:04:48.321Z,96433.84
2023-03-06T21:07:19.651Z,96435.13
2023-03-06T21:09:51.580Z,96422.89
2023-03-06T21:12:22.011Z,96417.83
2023-03-06T21:14:53.619Z,96414.82
2023-03-06T21:20:18.114Z,96401.39
2023-03-06T21:22:52.049Z,96397.57
2023-03-06T21:25:22.329Z,96386.02
2023-03-06T21:27:52.505Z,96388.95
2023-03-06T21:30:22.953Z,96385.53
2023-03-06T21:32:53.598Z,96388.66
2023-03-06T21:35:24.376Z,96386.36
2023-03-06T21:37:54.860Z,96390.89
2023-03-06T21:40:25.013Z,96392.05
2023-03-06T21:42:55.419Z,96398.71
2023-03-06T21:45:29.734Z,96404.33
2023-03-06T21:48:01.151Z,96407.23
2023-03-06T21:50:31.619Z,96418.30
2023-03-06T21:53:01.803Z,96423.77
2023-03-06T21:55:32.122Z,96431.84
2023-03-06T21:58:02.416Z,96447.71
2023-03-06T22:00:35.978Z,96459.20
2023-03-06T22:03:07.021Z,96467.73
2023-03-06T22:05:37.295Z,96480.22
2023-03-06T22:08:07.664Z,96492.95
2023-03-06T22:10:39.893Z,96502.61
2023-03-06T22:13:10.366Z,96503.85
2023-03-06T22:15:40.556Z,96517.19
2023-03-06T22:18:15.534Z,96525.98
2023-03-06T22:20:45.938Z,96528.15
2023-03-06T22:23:16.951Z,96526.83
2023-03-06T22:25:47.243Z,96520.79
2023-03-06T22:28:18.828Z,96529.93
2023-03-06T22:30:49.012Z,96529.27
2023-03-06T22:33:19.281Z,96533.52
2023-03-06T22:35:49.889Z,96525.28
2023-03-06T22:38:20.240Z,96533.66
2023-03-06T22:40:50.823Z,96539.50
2023-03-06T22:43:21.222Z,96539.87
2023-03-06T22:45:52.472Z,96547.02
2023-03-06T22:48:23.612Z,96559.41
2023-03-06T22:50:54.885Z,96560.15
2023-03-06T22:53:25.235Z,96567.92
2023-03-06T22:55:57.512Z,96575.52
2023-03-06T22:58:33.857Z,96573.50
2023-03-06T23:01:11.668Z,96575.64
2023-03-06T23:03:43.146Z,96579.98
2023-03-06T23:06:16.020Z,96578.80
2023-03-06T23:08:48.974Z,96576.64
2023-03-06T23:11:19.911Z,96578.35
2023-03-06T23:13:51.124Z,96577.95
2023-03-06T23:16:21.203Z,96580.90
2023-03-06T23:18:52.743Z,96587.03
2023-03-06T23:21:24.538Z,96587.50
2023-03-06T23:23:56.182Z,96580.61
2023-03-06T23:26:30.727Z,96579.96
2023-03-06T23:29:01.104Z,96577.19
2023-03-06T23:31:32.349Z,96579.99
2023-03-06T23:34:03.632Z,96586.16
2023-03-06T23:36:33.932Z,96584.08
2023-03-06T23:39:04.207Z,96583.98
2023-03-06T23:41:34.909Z,96583.98
2023-03-06T23:44:06.109Z,96581.23
2023-03-06T23:46:36.197Z,96592.59
2023-03-06T23:49:07.755Z,96591.28
2023-03-06T23:51:39.416Z,96593.30
2023-03-06T23:54:11.760Z,96592.04
2023-03-06T23:56:42.082Z,96588.58
2023-03-06T23:59:13.084Z,96582.62
